sensor_id;sensor_type;location;lat;lon;timestamp;P1;durP1;ratioP1;P2;durP2;ratioP2
67798;SDS011;54596;43.216;27.904;2024-03-06T00:02:20;17.55;;;5.90;;
67798;SDS011;54596;43.216;27.904;2024-03-06T00:04:46;12.95;;;5.80;;
67798;SDS011;54596;43.216;27.904;2024-03-06T00:07:11;15.52;;;5.90;;
67798;SDS011;54596;43.216;27.904;2024-03-06T00:09:37;15.43;;;5.72;;
67798;SDS011;54596;43.216;27.904;2024-03-06T00:12:03;16.63;;;5.70;;
67798;SDS011;54596;43.216;27.904;2024-03-06T00:14:29;13.40;;;5.43;;
67798;SDS011;54596;43.216;27.904;2024-03-06T00:16:54;17.25;;;5.95;;
67798;SDS011;54596;43.216;27.904;2024-03-06T00:19:23;14.55;;;5.70;;
67798;SDS011;54596;43.216;27.904;2024-03-06T00:21:49;13.98;;;5.82;;
67798;SDS011;54596;43.216;27.904;2024-03-06T00:24:15;16.02;;;5.88;;
67798;SDS011;54596;43.216;27.904;2024-03-06T00:26:41;14.70;;;6.30;;
67798;SDS011;54596;43.216;27.904;2024-03-06T00:29:08;14.75;;;5.57;;
67798;SDS011;54596;43.216;27.904;2024-03-06T00:31:34;14.07;;;6.40;;
67798;SDS011;54596;43.216;27.904;2024-03-06T00:34:00;16.38;;;6.18;;
67798;SDS011;54596;43.216;27.904;2024-03-06T00:36:25;13.35;;;6.63;;
67798;SDS011;54596;43.216;27.904;2024-03-06T00:38:51;16.63;;;6.60;;
67798;SDS011;54596;43.216;27.904;2024-03-06T00:41:17;15.32;;;7.05;;
67798;SDS011;54596;43.216;27.904;2024-03-06T00:43:43;18.13;;;6.68;;
67798;SDS011;54596;43.216;27.904;2024-03-06T00:46:08;14.05;;;6.75;;
67798;SDS011;54596;43.216;27.904;2024-03-06T00:48:34;15.77;;;6.85;;
67798;SDS011;54596;43.216;27.904;2024-03-06T00:50:59;16.42;;;6.72;;
67798;SDS011;54596;43.216;27.904;2024-03-06T00:53:25;15.20;;;6.80;;
67798;SDS011;54596;43.216;27.904;2024-03-06T00:55:51;15.82;;;7.38;;
67798;SDS011;54596;43.216;27.904;2024-03-06T00:58:16;14.57;;;7.28;;
67798;SDS011;54596;43.216;27.904;2024-03-06T01:00:42;16.77;;;7.78;;
67798;SDS011;54596;43.216;27.904;2024-03-06T01:03:07;14.02;;;7.72;;
67798;SDS011;54596;43.216;27.904;2024-03-06T01:05:33;16.95;;;8.30;;
67798;SDS011;54596;43.216;27.904;2024-03-06T01:07:58;17.20;;;7.68;;
67798;SDS011;54596;43.216;27.904;2024-03-06T01:10:24;21.55;;;8.40;;
67798;SDS011;54596;43.216;27.904;2024-03-06T01:12:50;17.85;;;8.20;;
67798;SDS011;54596;43.216;27.904;2024-03-06T01:15:16;21.67;;;8.77;;
67798;SDS011;54596;43.216;27.904;2024-03-06T01:17:41;15.68;;;8.73;;
67798;SDS011;54596;43.216;27.904;2024-03-06T01:20:07;17.88;;;8.95;;
67798;SDS011;54596;43.216;27.904;2024-03-06T01:22:33;18.75;;;8.57;;
67798;SDS011;54596;43.216;27.904;2024-03-06T01:24:59;21.05;;;9.43;;
67798;SDS011;54596;43.216;27.904;2024-03-06T01:27:26;21.88;;;9.93;;
67798;SDS011;54596;43.216;27.904;2024-03-06T01:29:52;19.00;;;9.75;;
67798;SDS011;54596;43.216;27.904;2024-03-06T01:32:17;19.48;;;10.57;;
67798;SDS011;54596;43.216;27.904;2024-03-06T01:34:43;18.60;;;9.93;;
67798;SDS011;54596;43.216;27.904;2024-03-06T01:37:08;21.73;;;11.52;;
67798;SDS011;54596;43.216;27.904;2024-03-06T01:39:34;18.25;;;10.70;;
67798;SDS011;54596;43.216;27.904;2024-03-06T01:42:01;20.45;;;10.88;;
67798;SDS011;54596;43.216;27.904;2024-03-06T01:44:27;23.17;;;11.45;;
67798;SDS011;54596;43.216;27.904;2024-03-06T01:46:52;22.63;;;11.88;;
67798;SDS011;54596;43.216;27.904;2024-03-06T01:49:19;21.08;;;11.52;;
67798;SDS011;54596;43.216;27.904;2024-03-06T01:51:51;18.85;;;11.13;;
67798;SDS011;54596;43.216;27.904;2024-03-06T01:54:18;21.80;;;11.60;;
67798;SDS011;54596;43.216;27.904;2024-03-06T01:56:45;20.85;;;11.25;;
67798;SDS011;54596;43.216;27.904;2024-03-06T01:59:12;21.58;;;11.57;;
67798;SDS011;54596;43.216;27.904;2024-03-06T02:01:39;21.48;;;11.50;;
67798;SDS011;54596;43.216;27.904;2024-03-06T02:04:05;19.30;;;11.48;;
67798;SDS011;54596;43.216;27.904;2024-03-06T02:06:32;21.40;;;11.35;;
67798;SDS011;54596;43.216;27.904;2024-03-06T02:08:58;19.67;;;11.32;;
67798;SDS011;54596;43.216;27.904;2024-03-06T02:11:24;23.27;;;11.88;;
67798;SDS011;54596;43.216;27.904;2024-03-06T02:13:49;23.05;;;12.32;;
67798;SDS011;54596;43.216;27.904;2024-03-06T02:16:15;21.98;;;12.63;;
67798;SDS011;54596;43.216;27.904;2024-03-06T02:18:56;21.90;;;13.32;;
67798;SDS011;54596;43.216;27.904;2024-03-06T02:21:23;22.65;;;14.02;;
67798;SDS011;54596;43.216;27.904;2024-03-06T02:23:50;25.02;;;13.88;;
67798;SDS011;54596;43.216;27.904;2024-03-06T02:26:19;20.80;;;11.63;;
67798;SDS011;54596;43.216;27.904;2024-03-06T02:28:51;25.35;;;12.32;;
67798;SDS011;54596;43.216;27.904;2024-03-06T02:31:19;22.30;;;11.85;;
67798;SDS011;54596;43.216;27.904;2024-03-06T02:33:45;19.38;;;11.77;;
67798;SDS011;54596;43.216;27.904;2024-03-06T02:36:15;22.85;;;11.82;;
67798;SDS011;54596;43.216;27.904;2024-03-06T02:38:42;21.38;;;11.48;;
67798;SDS011;54596;43.216;27.904;2024-03-06T02:41:08;23.00;;;11.68;;
67798;SDS011;54596;43.216;27.904;2024-03-06T02:43:34;20.73;;;11.85;;
67798;SDS011;54596;43.216;27.904;2024-03-06T02:45:59;19.55;;;11.40;;
67798;SDS011;54596;43.216;27.904;2024-03-06T02:48:25;21.25;;;11.60;;
67798;SDS011;54596;43.216;27.904;2024-03-06T02:50:51;22.45;;;11.70;;
67798;SDS011;54596;43.216;27.904;2024-03-06T02:53:17;20.60;;;12.00;;
67798;SDS011;54596;43.216;27.904;2024-03-06T02:55:42;22.05;;;11.73;;
67798;SDS011;54596;43.216;27.904;2024-03-06T02:58:08;22.02;;;11.40;;
67798;SDS011;54596;43.216;27.904;2024-03-06T03:00:34;20.77;;;11.75;;
67798;SDS011;54596;43.216;27.904;2024-03-06T03:02:59;21.30;;;11.70;;
67798;SDS011;54596;43.216;27.904;2024-03-06T03:05:25;23.30;;;12.30;;
67798;SDS011;54596;43.216;27.904;2024-03-06T03:07:50;25.10;;;13.27;;
67798;SDS011;54596;43.216;27.904;2024-03-06T03:10:16;23.73;;;12.75;;
67798;SDS011;54596;43.216;27.904;2024-03-06T03:12:42;24.05;;;12.82;;
67798;SDS011;54596;43.216;27.904;2024-03-06T03:15:08;20.02;;;11.55;;
67798;SDS011;54596;43.216;27.904;2024-03-06T03:17:34;27.58;;;12.68;;
67798;SDS011;54596;43.216;27.904;2024-03-06T03:20:01;22.95;;;12.95;;
67798;SDS011;54596;43.216;27.904;2024-03-06T03:22:41;26.98;;;12.88;;
67798;SDS011;54596;43.216;27.904;2024-03-06T03:25:07;24.00;;;12.85;;
67798;SDS011;54596;43.216;27.904;2024-03-06T03:27:36;23.40;;;13.00;;
67798;SDS011;54596;43.216;27.904;2024-03-06T03:30:02;25.60;;;13.48;;
67798;SDS011;54596;43.216;27.904;2024-03-06T03:32:28;25.13;;;12.93;;
67798;SDS011;54596;43.216;27.904;2024-03-06T03:34:54;24.83;;;13.30;;
67798;SDS011;54596;43.216;27.904;2024-03-06T03:37:19;22.95;;;13.43;;
67798;SDS011;54596;43.216;27.904;2024-03-06T03:39:45;22.13;;;13.45;;
67798;SDS011;54596;43.216;27.904;2024-03-06T03:42:11;23.38;;;14.38;;
67798;SDS011;54596;43.216;27.904;2024-03-06T03:44:36;25.02;;;13.82;;
67798;SDS011;54596;43.216;27.904;2024-03-06T03:47:02;24.10;;;14.35;;
67798;SDS011;54596;43.216;27.904;2024-03-06T03:49:27;22.05;;;13.82;;
67798;SDS011;54596;43.216;27.904;2024-03-06T03:51:53;23.95;;;13.98;;
67798;SDS011;54596;43.216;27.904;2024-03-06T03:54:18;25.30;;;14.82;;
67798;SDS011;54596;43.216;27.904;2024-03-06T03:56:44;23.92;;;14.07;;
67798;SDS011;54596;43.216;27.904;2024-03-06T03:59:10;49.97;;;16.63;;
67798;SDS011;54596;43.216;27.904;2024-03-06T04:01:36;25.95;;;14.90;;
67798;SDS011;54596;43.216;27.904;2024-03-06T04:04:01;23.65;;;13.93;;
67798;SDS011;54596;43.216;27.904;2024-03-06T04:06:27;26.58;;;15.95;;
67798;SDS011;54596;43.216;27.904;2024-03-06T04:08:52;26.77;;;15.02;;
67798;SDS011;54596;43.216;27.904;2024-03-06T04:11:18;28.52;;;16.00;;
67798;SDS011;54596;43.216;27.904;2024-03-06T04:13:44;23.08;;;14.32;;
67798;SDS011;54596;43.216;27.904;2024-03-06T04:16:15;24.70;;;14.25;;
67798;SDS011;54596;43.216;27.904;2024-03-06T04:18:42;22.92;;;13.90;;
67798;SDS011;54596;43.216;27.904;2024-03-06T04:21:07;23.25;;;13.65;;
67798;SDS011;54596;43.216;27.904;2024-03-06T04:23:35;28.08;;;15.52;;
67798;SDS011;54596;43.216;27.904;2024-03-06T04:26:01;27.85;;;14.35;;
67798;SDS011;54596;43.216;27.904;2024-03-06T04:28:28;25.95;;;14.45;;
67798;SDS011;54596;43.216;27.904;2024-03-06T04:30:54;28.77;;;15.38;;
67798;SDS011;54596;43.216;27.904;2024-03-06T04:33:20;23.52;;;14.82;;
67798;SDS011;54596;43.216;27.904;2024-03-06T04:35:45;23.08;;;14.85;;
67798;SDS011;54596;43.216;27.904;2024-03-06T04:38:11;25.73;;;15.65;;
67798;SDS011;54596;43.216;27.904;2024-03-06T04:40:39;24.58;;;15.18;;
67798;SDS011;54596;43.216;27.904;2024-03-06T04:43:05;27.38;;;15.05;;
67798;SDS011;54596;43.216;27.904;2024-03-06T04:45:32;24.30;;;14.23;;
67798;SDS011;54596;43.216;27.904;2024-03-06T04:47:58;22.45;;;13.73;;
67798;SDS011;54596;43.216;27.904;2024-03-06T04:50:24;25.45;;;14.18;;
67798;SDS011;54596;43.216;27.904;2024-03-06T04:52:50;23.42;;;13.45;;
67798;SDS011;54596;43.216;27.904;2024-03-06T04:55:16;21.02;;;12.95;;
67798;SDS011;54596;43.216;27.904;2024-03-06T04:57:45;23.05;;;11.73;;
67798;SDS011;54596;43.216;27.904;2024-03-06T05:00:11;23.58;;;13.57;;
67798;SDS011;54596;43.216;27.904;2024-03-06T05:02:38;19.95;;;12.18;;
67798;SDS011;54596;43.216;27.904;2024-03-06T05:05:04;22.92;;;12.77;;
67798;SDS011;54596;43.216;27.904;2024-03-06T05:07:33;20.20;;;12.70;;
67798;SDS011;54596;43.216;27.904;2024-03-06T05:10:00;24.15;;;12.30;;
67798;SDS011;54596;43.216;27.904;2024-03-06T05:12:26;20.65;;;11.43;;
67798;SDS011;54596;43.216;27.904;2024-03-06T05:14:52;20.95;;;12.13;;
67798;SDS011;54596;43.216;27.904;2024-03-06T05:17:19;22.60;;;13.32;;
67798;SDS011;54596;43.216;27.904;2024-03-06T05:19:48;23.55;;;14.25;;
67798;SDS011;54596;43.216;27.904;2024-03-06T05:22:15;21.67;;;13.15;;
67798;SDS011;54596;43.216;27.904;2024-03-06T05:24:41;24.38;;;14.32;;
67798;SDS011;54596;43.216;27.904;2024-03-06T05:30:32;20.73;;;12.85;;
67798;SDS011;54596;43.216;27.904;2024-03-06T05:36:19;26.23;;;14.32;;
67798;SDS011;54596;43.216;27.904;2024-03-06T05:38:46;23.77;;;15.07;;
67798;SDS011;54596;43.216;27.904;2024-03-06T05:41:13;24.83;;;14.73;;
67798;SDS011;54596;43.216;27.904;2024-03-06T05:43:39;29.05;;;15.63;;
67798;SDS011;54596;43.216;27.904;2024-03-06T05:46:06;25.02;;;13.30;;
67798;SDS011;54596;43.216;27.904;2024-03-06T05:48:32;22.77;;;14.10;;
67798;SDS011;54596;43.216;27.904;2024-03-06T05:50:58;25.10;;;14.27;;
67798;SDS011;54596;43.216;27.904;2024-03-06T05:53:24;27.40;;;15.15;;
67798;SDS011;54596;43.216;27.904;2024-03-06T05:55:50;24.92;;;14.60;;
67798;SDS011;54596;43.216;27.904;2024-03-06T05:58:15;22.10;;;14.02;;
67798;SDS011;54596;43.216;27.904;2024-03-06T06:00:42;24.65;;;14.15;;
67798;SDS011;54596;43.216;27.904;2024-03-06T06:03:08;36.05;;;16.05;;
67798;SDS011;54596;43.216;27.904;2024-03-06T06:05:36;24.15;;;15.02;;
67798;SDS011;54596;43.216;27.904;2024-03-06T06:08:05;28.83;;;15.50;;
67798;SDS011;54596;43.216;27.904;2024-03-06T06:10:33;24.35;;;13.32;;
67798;SDS011;54596;43.216;27.904;2024-03-06T06:13:00;26.15;;;13.55;;
67798;SDS011;54596;43.216;27.904;2024-03-06T06:15:26;23.55;;;14.18;;
67798;SDS011;54596;43.216;27.904;2024-03-06T06:17:52;21.10;;;13.23;;
67798;SDS011;54596;43.216;27.904;2024-03-06T06:20:17;26.10;;;13.75;;
67798;SDS011;54596;43.216;27.904;2024-03-06T06:22:43;24.90;;;13.75;;
67798;SDS011;54596;43.216;27.904;2024-03-06T06:25:09;25.08;;;12.75;;
67798;SDS011;54596;43.216;27.904;2024-03-06T06:27:35;25.05;;;13.20;;
67798;SDS011;54596;43.216;27.904;2024-03-06T06:30:01;21.88;;;12.85;;
67798;SDS011;54596;43.216;27.904;2024-03-06T06:32:26;22.00;;;12.95;;
67798;SDS011;54596;43.216;27.904;2024-03-06T06:34:53;24.13;;;12.52;;
67798;SDS011;54596;43.216;27.904;2024-03-06T06:37:18;25.73;;;13.60;;
67798;SDS011;54596;43.216;27.904;2024-03-06T06:39:44;20.75;;;12.20;;
67798;SDS011;54596;43.216;27.904;2024-03-06T06:42:10;20.10;;;10.93;;
67798;SDS011;54596;43.216;27.904;2024-03-06T06:44:38;17.60;;;10.30;;
67798;SDS011;54596;43.216;27.904;2024-03-06T06:47:04;20.58;;;11.82;;
67798;SDS011;54596;43.216;27.904;2024-03-06T06:49:30;18.55;;;10.50;;
67798;SDS011;54596;43.216;27.904;2024-03-06T06:51:55;16.63;;;9.40;;
67798;SDS011;54596;43.216;27.904;2024-03-06T06:54:21;20.25;;;10.07;;
67798;SDS011;54596;43.216;27.904;2024-03-06T06:56:46;21.80;;;11.02;;
67798;SDS011;54596;43.216;27.904;2024-03-06T06:59:12;19.23;;;10.63;;
67798;SDS011;54596;43.216;27.904;2024-03-06T07:01:38;22.75;;;11.32;;
67798;SDS011;54596;43.216;27.904;2024-03-06T07:04:05;20.35;;;11.00;;
67798;SDS011;54596;43.216;27.904;2024-03-06T07:06:31;21.67;;;10.32;;
67798;SDS011;54596;43.216;27.904;2024-03-06T07:08:57;24.33;;;11.93;;
67798;SDS011;54596;43.216;27.904;2024-03-06T07:11:22;20.10;;;11.02;;
67798;SDS011;54596;43.216;27.904;2024-03-06T07:13:49;19.60;;;9.50;;
67798;SDS011;54596;43.216;27.904;2024-03-06T07:16:14;20.95;;;10.20;;
67798;SDS011;54596;43.216;27.904;2024-03-06T07:18:40;19.13;;;9.52;;
67798;SDS011;54596;43.216;27.904;2024-03-06T07:21:05;19.02;;;10.10;;
67798;SDS011;54596;43.216;27.904;2024-03-06T07:23:31;18.23;;;9.02;;
67798;SDS011;54596;43.216;27.904;2024-03-06T07:25:57;18.40;;;9.75;;
67798;SDS011;54596;43.216;27.904;2024-03-06T07:28:24;19.35;;;10.30;;
67798;SDS011;54596;43.216;27.904;2024-03-06T07:30:51;19.38;;;9.75;;
67798;SDS011;54596;43.216;27.904;2024-03-06T07:33:17;24.33;;;10.32;;
67798;SDS011;54596;43.216;27.904;2024-03-06T07:35:43;18.75;;;10.10;;
67798;SDS011;54596;43.216;27.904;2024-03-06T07:38:08;20.15;;;10.48;;
67798;SDS011;54596;43.216;27.904;2024-03-06T07:40:35;23.52;;;10.57;;
67798;SDS011;54596;43.216;27.904;2024-03-06T07:43:00;22.52;;;9.75;;
67798;SDS011;54596;43.216;27.904;2024-03-06T07:45:26;21.13;;;9.95;;
67798;SDS011;54596;43.216;27.904;2024-03-06T07:47:52;20.17;;;10.98;;
67798;SDS011;54596;43.216;27.904;2024-03-06T07:50:17;19.85;;;10.80;;
67798;SDS011;54596;43.216;27.904;2024-03-06T07:52:47;18.95;;;9.90;;
67798;SDS011;54596;43.216;27.904;2024-03-06T07:55:14;21.13;;;9.77;;
67798;SDS011;54596;43.216;27.904;2024-03-06T07:57:40;22.55;;;12.02;;
67798;SDS011;54596;43.216;27.904;2024-03-06T08:00:06;29.38;;;14.52;;
67798;SDS011;54596;43.216;27.904;2024-03-06T08:02:42;20.63;;;10.90;;
67798;SDS011;54596;43.216;27.904;2024-03-06T08:05:11;18.73;;;10.27;;
67798;SDS011;54596;43.216;27.904;2024-03-06T08:07:40;19.10;;;10.35;;
67798;SDS011;54596;43.216;27.904;2024-03-06T08:10:10;20.75;;;10.07;;
67798;SDS011;54596;43.216;27.904;2024-03-06T08:12:41;21.48;;;10.77;;
67798;SDS011;54596;43.216;27.904;2024-03-06T08:15:09;42.47;;;12.60;;
67798;SDS011;54596;43.216;27.904;2024-03-06T08:17:37;149.70;;;20.55;;
67798;SDS011;54596;43.216;27.904;2024-03-06T08:20:06;17.80;;;10.07;;
67798;SDS011;54596;43.216;27.904;2024-03-06T08:22:40;20.45;;;11.07;;
67798;SDS011;54596;43.216;27.904;2024-03-06T08:25:07;21.27;;;10.02;;
67798;SDS011;54596;43.216;27.904;2024-03-06T08:27:39;18.63;;;10.85;;
67798;SDS011;54596;43.216;27.904;2024-03-06T08:30:06;21.73;;;10.13;;
67798;SDS011;54596;43.216;27.904;2024-03-06T08:32:33;21.70;;;10.65;;
67798;SDS011;54596;43.216;27.904;2024-03-06T08:35:08;18.35;;;9.25;;
67798;SDS011;54596;43.216;27.904;2024-03-06T08:37:41;22.75;;;11.23;;
67798;SDS011;54596;43.216;27.904;2024-03-06T08:40:07;19.63;;;10.57;;
67798;SDS011;54596;43.216;27.904;2024-03-06T08:42:39;20.05;;;10.70;;
67798;SDS011;54596;43.216;27.904;2024-03-06T08:45:06;21.67;;;11.48;;
67798;SDS011;54596;43.216;27.904;2024-03-06T08:47:33;21.25;;;10.30;;
67798;SDS011;54596;43.216;27.904;2024-03-06T08:49:59;16.92;;;8.40;;
67798;SDS011;54596;43.216;27.904;2024-03-06T08:52:24;21.35;;;9.90;;
67798;SDS011;54596;43.216;27.904;2024-03-06T08:54:50;21.65;;;9.85;;
67798;SDS011;54596;43.216;27.904;2024-03-06T08:57:15;18.83;;;10.32;;
67798;SDS011;54596;43.216;27.904;2024-03-06T08:59:41;18.42;;;10.00;;
67798;SDS011;54596;43.216;27.904;2024-03-06T09:02:14;21.10;;;10.27;;
67798;SDS011;54596;43.216;27.904;2024-03-06T09:04:45;19.23;;;9.32;;
67798;SDS011;54596;43.216;27.904;2024-03-06T09:07:11;18.52;;;8.77;;
67798;SDS011;54596;43.216;27.904;2024-03-06T09:09:38;16.05;;;8.95;;
67798;SDS011;54596;43.216;27.904;2024-03-06T09:12:04;22.60;;;10.57;;
67798;SDS011;54596;43.216;27.904;2024-03-06T09:14:33;20.10;;;8.90;;
67798;SDS011;54596;43.216;27.904;2024-03-06T09:16:59;19.02;;;9.00;;
67798;SDS011;54596;43.216;27.904;2024-03-06T09:19:25;20.45;;;9.60;;
67798;SDS011;54596;43.216;27.904;2024-03-06T09:21:50;19.83;;;9.23;;
67798;SDS011;54596;43.216;27.904;2024-03-06T09:24:16;20.95;;;9.98;;
67798;SDS011;54596;43.216;27.904;2024-03-06T09:26:42;20.35;;;10.75;;
67798;SDS011;54596;43.216;27.904;2024-03-06T09:29:08;22.48;;;11.25;;
67798;SDS011;54596;43.216;27.904;2024-03-06T09:31:35;22.45;;;10.88;;
67798;SDS011;54596;43.216;27.904;2024-03-06T09:34:02;19.00;;;9.57;;
67798;SDS011;54596;43.216;27.904;2024-03-06T09:36:28;21.35;;;9.48;;
67798;SDS011;54596;43.216;27.904;2024-03-06T09:38:53;17.98;;;8.85;;
67798;SDS011;54596;43.216;27.904;2024-03-06T09:41:20;46.47;;;12.18;;
67798;SDS011;54596;43.216;27.904;2024-03-06T09:43:47;17.92;;;10.00;;
67798;SDS011;54596;43.216;27.904;2024-03-06T09:46:13;18.40;;;9.15;;
67798;SDS011;54596;43.216;27.904;2024-03-06T09:48:45;21.73;;;9.27;;
67798;SDS011;54596;43.216;27.904;2024-03-06T09:51:14;20.38;;;10.45;;
67798;SDS011;54596;43.216;27.904;2024-03-06T09:53:40;21.45;;;10.32;;
67798;SDS011;54596;43.216;27.904;2024-03-06T09:56:08;18.52;;;10.45;;
67798;SDS011;54596;43.216;27.904;2024-03-06T09:58:37;17.23;;;9.38;;
67798;SDS011;54596;43.216;27.904;2024-03-06T10:01:03;18.15;;;9.60;;
67798;SDS011;54596;43.216;27.904;2024-03-06T10:03:32;18.23;;;9.48;;
67798;SDS011;54596;43.216;27.904;2024-03-06T10:05:59;18.67;;;10.00;;
67798;SDS011;54596;43.216;27.904;2024-03-06T10:08:25;22.65;;;9.95;;
67798;SDS011;54596;43.216;27.904;2024-03-06T10:10:51;23.50;;;10.30;;
67798;SDS011;54596;43.216;27.904;2024-03-06T10:13:17;19.23;;;10.98;;
67798;SDS011;54596;43.216;27.904;2024-03-06T10:15:59;18.30;;;10.40;;
67798;SDS011;54596;43.216;27.904;2024-03-06T10:18:29;18.58;;;10.55;;
67798;SDS011;54596;43.216;27.904;2024-03-06T10:20:57;18.13;;;10.15;;
67798;SDS011;54596;43.216;27.904;2024-03-06T10:23:23;18.42;;;10.10;;
67798;SDS011;54596;43.216;27.904;2024-03-06T10:25:50;18.95;;;10.15;;
67798;SDS011;54596;43.216;27.904;2024-03-06T10:28:18;23.00;;;10.25;;
67798;SDS011;54596;43.216;27.904;2024-03-06T10:30:45;22.77;;;10.32;;
67798;SDS011;54596;43.216;27.904;2024-03-06T10:33:11;31.00;;;17.25;;
67798;SDS011;54596;43.216;27.904;2024-03-06T10:35:43;29.23;;;18.48;;
67798;SDS011;54596;43.216;27.904;2024-03-06T10:38:10;23.38;;;12.75;;
67798;SDS011;54596;43.216;27.904;2024-03-06T10:40:37;19.73;;;10.32;;
67798;SDS011;54596;43.216;27.904;2024-03-06T10:43:04;22.50;;;10.45;;
67798;SDS011;54596;43.216;27.904;2024-03-06T10:45:34;20.10;;;10.55;;
67798;SDS011;54596;43.216;27.904;2024-03-06T10:48:05;17.85;;;10.00;;
67798;SDS011;54596;43.216;27.904;2024-03-06T10:50:32;19.30;;;10.45;;
67798;SDS011;54596;43.216;27.904;2024-03-06T10:52:58;19.20;;;10.95;;
67798;SDS011;54596;43.216;27.904;2024-03-06T10:55:25;22.48;;;11.00;;
67798;SDS011;54596;43.216;27.904;2024-03-06T10:57:53;20.08;;;11.88;;
67798;SDS011;54596;43.216;27.904;2024-03-06T11:00:20;17.67;;;10.55;;
67798;SDS011;54596;43.216;27.904;2024-03-06T11:02:46;17.50;;;10.00;;
67798;SDS011;54596;43.216;27.904;2024-03-06T11:05:15;21.70;;;10.85;;
67798;SDS011;54596;43.216;27.904;2024-03-06T11:07:41;20.10;;;10.75;;
67798;SDS011;54596;43.216;27.904;2024-03-06T11:10:08;17.95;;;10.23;;
67798;SDS011;54596;43.216;27.904;2024-03-06T11:12:41;19.67;;;10.57;;
67798;SDS011;54596;43.216;27.904;2024-03-06T11:15:13;19.23;;;10.55;;
67798;SDS011;54596;43.216;27.904;2024-03-06T11:17:41;21.30;;;10.45;;
67798;SDS011;54596;43.216;27.904;2024-03-06T11:20:14;25.65;;;10.50;;
67798;SDS011;54596;43.216;27.904;2024-03-06T11:28:11;22.40;;;11.25;;
67798;SDS011;54596;43.216;27.904;2024-03-06T11:30:45;21.13;;;10.48;;
67798;SDS011;54596;43.216;27.904;2024-03-06T11:33:14;19.05;;;10.85;;
67798;SDS011;54596;43.216;27.904;2024-03-06T11:38:42;18.63;;;10.07;;
67798;SDS011;54596;43.216;27.904;2024-03-06T11:41:33;19.45;;;10.07;;
67798;SDS011;54596;43.216;27.904;2024-03-06T11:44:12;20.02;;;10.52;;
67798;SDS011;54596;43.216;27.904;2024-03-06T11:46:43;23.13;;;11.50;;
67798;SDS011;54596;43.216;27.904;2024-03-06T11:49:16;19.10;;;10.80;;
67798;SDS011;54596;43.216;27.904;2024-03-06T11:51:49;23.65;;;11.73;;
67798;SDS011;54596;43.216;27.904;2024-03-06T11:56:48;16.75;;;9.70;;
67798;SDS011;54596;43.216;27.904;2024-03-06T11:59:16;23.48;;;10.50;;
67798;SDS011;54596;43.216;27.904;2024-03-06T12:01:42;26.60;;;11.90;;
67798;SDS011;54596;43.216;27.904;2024-03-06T12:04:08;21.42;;;11.00;;
67798;SDS011;54596;43.216;27.904;2024-03-06T12:06:33;19.13;;;10.95;;
67798;SDS011;54596;43.216;27.904;2024-03-06T12:08:59;20.73;;;11.20;;
67798;SDS011;54596;43.216;27.904;2024-03-06T12:11:25;20.58;;;11.50;;
67798;SDS011;54596;43.216;27.904;2024-03-06T12:13:54;22.50;;;11.15;;
67798;SDS011;54596;43.216;27.904;2024-03-06T12:16:21;23.27;;;11.10;;
67798;SDS011;54596;43.216;27.904;2024-03-06T12:18:46;22.92;;;11.18;;
67798;SDS011;54596;43.216;27.904;2024-03-06T12:21:20;20.50;;;10.93;;
67798;SDS011;54596;43.216;27.904;2024-03-06T12:23:47;23.45;;;12.20;;
67798;SDS011;54596;43.216;27.904;2024-03-06T12:26:13;23.17;;;12.05;;
67798;SDS011;54596;43.216;27.904;2024-03-06T12:28:39;20.83;;;11.20;;
67798;SDS011;54596;43.216;27.904;2024-03-06T12:31:05;21.13;;;11.73;;
67798;SDS011;54596;43.216;27.904;2024-03-06T12:33:32;22.60;;;11.38;;
67798;SDS011;54596;43.216;27.904;2024-03-06T12:36:08;22.83;;;11.27;;
67798;SDS011;54596;43.216;27.904;2024-03-06T12:38:36;19.25;;;10.45;;
67798;SDS011;54596;43.216;27.904;2024-03-06T12:41:02;22.13;;;11.32;;
67798;SDS011;54596;43.216;27.904;2024-03-06T12:43:29;22.00;;;11.43;;
67798;SDS011;54596;43.216;27.904;2024-03-06T12:45:55;22.98;;;11.65;;
67798;SDS011;54596;43.216;27.904;2024-03-06T12:48:22;19.88;;;10.52;;
67798;SDS011;54596;43.216;27.904;2024-03-06T12:50:48;23.55;;;11.68;;
67798;SDS011;54596;43.216;27.904;2024-03-06T12:53:16;20.65;;;11.50;;
67798;SDS011;54596;43.216;27.904;2024-03-06T12:55:44;21.25;;;11.02;;
67798;SDS011;54596;43.216;27.904;2024-03-06T12:58:13;20.33;;;11.15;;
67798;SDS011;54596;43.216;27.904;2024-03-06T13:00:39;22.05;;;12.60;;
67798;SDS011;54596;43.216;27.904;2024-03-06T13:03:06;22.85;;;13.13;;
67798;SDS011;54596;43.216;27.904;2024-03-06T13:05:32;26.45;;;13.57;;
67798;SDS011;54596;43.216;27.904;2024-03-06T13:07:59;23.67;;;13.98;;
67798;SDS011;54596;43.216;27.904;2024-03-06T13:10:25;27.90;;;14.23;;
67798;SDS011;54596;43.216;27.904;2024-03-06T13:12:50;22.27;;;14.02;;
67798;SDS011;54596;43.216;27.904;2024-03-06T13:15:16;26.77;;;14.63;;
67798;SDS011;54596;43.216;27.904;2024-03-06T13:17:42;23.77;;;14.10;;
67798;SDS011;54596;43.216;27.904;2024-03-06T13:20:08;27.95;;;14.93;;
67798;SDS011;54596;43.216;27.904;2024-03-06T13:22:40;25.35;;;14.32;;
67798;SDS011;54596;43.216;27.904;2024-03-06T13:25:06;25.58;;;14.70;;
67798;SDS011;54596;43.216;27.904;2024-03-06T13:27:32;27.35;;;14.48;;
67798;SDS011;54596;43.216;27.904;2024-03-06T13:29:57;35.28;;;14.55;;
67798;SDS011;54596;43.216;27.904;2024-03-06T13:32:23;26.80;;;14.88;;
67798;SDS011;54596;43.216;27.904;2024-03-06T13:34:49;25.85;;;14.38;;
67798;SDS011;54596;43.216;27.904;2024-03-06T13:37:15;26.02;;;14.02;;
67798;SDS011;54596;43.216;27.904;2024-03-06T13:39:41;25.25;;;14.45;;
67798;SDS011;54596;43.216;27.904;2024-03-06T13:42:07;26.63;;;15.48;;
67798;SDS011;54596;43.216;27.904;2024-03-06T13:44:36;29.77;;;14.68;;
67798;SDS011;54596;43.216;27.904;2024-03-06T13:47:02;26.05;;;14.70;;
67798;SDS011;54596;43.216;27.904;2024-03-06T13:52:04;25.15;;;15.88;;
67798;SDS011;54596;43.216;27.904;2024-03-06T13:54:30;23.67;;;14.63;;
67798;SDS011;54596;43.216;27.904;2024-03-06T13:56:56;28.85;;;14.43;;
67798;SDS011;54596;43.216;27.904;2024-03-06T13:59:33;26.52;;;15.02;;
67798;SDS011;54596;43.216;27.904;2024-03-06T14:01:59;25.25;;;14.38;;
67798;SDS011;54596;43.216;27.904;2024-03-06T14:04:25;25.77;;;15.00;;
67798;SDS011;54596;43.216;27.904;2024-03-06T14:06:52;26.23;;;15.30;;
67798;SDS011;54596;43.216;27.904;2024-03-06T14:09:17;24.83;;;15.73;;
67798;SDS011;54596;43.216;27.904;2024-03-06T14:11:43;25.83;;;15.55;;
67798;SDS011;54596;43.216;27.904;2024-03-06T14:14:09;25.42;;;15.32;;
67798;SDS011;54596;43.216;27.904;2024-03-06T14:16:36;29.77;;;15.75;;
67798;SDS011;54596;43.216;27.904;2024-03-06T14:19:03;23.90;;;15.35;;
67798;SDS011;54596;43.216;27.904;2024-03-06T14:21:30;26.08;;;15.30;;
67798;SDS011;54596;43.216;27.904;2024-03-06T14:23:57;25.50;;;14.98;;
67798;SDS011;54596;43.216;27.904;2024-03-06T14:26:23;24.95;;;15.13;;
67798;SDS011;54596;43.216;27.904;2024-03-06T14:28:49;24.48;;;15.55;;
67798;SDS011;54596;43.216;27.904;2024-03-06T14:31:15;27.52;;;16.38;;